sensor_id;sensor_type;location;lat;lon;timestamp;temperature;humidity
16479;DHT22;8350;52.316;10.530;2023-12-29T00:01:14;9.20;99.90
16479;DHT22;8350;52.316;10.530;2023-12-29T00:03:41;9.20;99.90
16479;DHT22;8350;52.316;10.530;2023-12-29T00:06:09;9.10;99.90
16479;DHT22;8350;52.316;10.530;2023-12-29T00:08:36;9.10;99.90
16479;DHT22;8350;52.316;10.530;2023-12-29T00:11:03;9.00;99.90
16479;DHT22;8350;52.316;10.530;2023-12-29T00:13:30;8.90;99.90
16479;DHT22;8350;52.316;10.530;2023-12-29T00:15:57;9.00;99.90
16479;DHT22;8350;52.316;10.530;2023-12-29T00:18:24;9.00;99.90
16479;DHT22;8350;52.316;10.530;2023-12-29T00:20:51;9.00;99.90
16479;DHT22;8350;52.316;10.530;2023-12-29T00:23:19;9.00;99.90
16479;DHT22;8350;52.316;10.530;2023-12-29T00:25:47;9.00;99.90
16479;DHT22;8350;52.316;10.530;2023-12-29T00:28:14;9.00;99.90
16479;DHT22;8350;52.316;10.530;2023-12-29T00:30:40;9.00;99.90
16479;DHT22;8350;52.316;10.530;2023-12-29T00:33:07;9.00;99.90
16479;DHT22;8350;52.316;10.530;2023-12-29T00:35:37;9.00;99.90
16479;DHT22;8350;52.316;10.530;2023-12-29T00:38:04;9.00;99.90
16479;DHT22;8350;52.316;10.530;2023-12-29T00:40:32;9.00;99.90
16479;DHT22;8350;52.316;10.530;2023-12-29T00:43:02;9.00;99.90
16479;DHT22;8350;52.316;10.530;2023-12-29T00:45:29;9.00;99.90
16479;DHT22;8350;52.316;10.530;2023-12-29T00:47:58;9.00;99.90
16479;DHT22;8350;52.316;10.530;2023-12-29T00:50:25;9.00;99.90
16479;DHT22;8350;52.316;10.530;2023-12-29T00:52:52;9.00;99.90
16479;DHT22;8350;52.316;10.530;2023-12-29T00:55:21;9.00;99.90
16479;DHT22;8350;52.316;10.530;2023-12-29T00:57:49;9.10;99.90
16479;DHT22;8350;52.316;10.530;2023-12-29T01:00:16;9.10;99.90
16479;DHT22;8350;52.316;10.530;2023-12-29T01:02:46;9.10;99.90
16479;DHT22;8350;52.316;10.530;2023-12-29T01:05:15;9.10;99.90
16479;DHT22;8350;52.316;10.530;2023-12-29T01:07:46;9.10;99.90
16479;DHT22;8350;52.316;10.530;2023-12-29T01:10:13;9.10;99.90
16479;DHT22;8350;52.316;10.530;2023-12-29T01:12:43;9.20;99.90
16479;DHT22;8350;52.316;10.530;2023-12-29T01:15:12;9.10;99.90
16479;DHT22;8350;52.316;10.530;2023-12-29T01:17:38;9.20;99.90
16479;DHT22;8350;52.316;10.530;2023-12-29T01:20:06;9.20;99.90
16479;DHT22;8350;52.316;10.530;2023-12-29T01:22:33;9.10;99.90
16479;DHT22;8350;52.316;10.530;2023-12-29T01:25:02;9.20;99.90
16479;DHT22;8350;52.316;10.530;2023-12-29T01:27:29;9.20;99.90
16479;DHT22;8350;52.316;10.530;2023-12-29T01:29:56;9.20;99.90
16479;DHT22;8350;52.316;10.530;2023-12-29T01:32:24;9.20;99.90
16479;DHT22;8350;52.316;10.530;2023-12-29T01:34:52;9.30;99.90
16479;DHT22;8350;52.316;10.530;2023-12-29T01:37:19;9.30;99.90
16479;DHT22;8350;52.316;10.530;2023-12-29T01:39:45;9.30;99.90
16479;DHT22;8350;52.316;10.530;2023-12-29T01:42:12;9.30;99.90
16479;DHT22;8350;52.316;10.530;2023-12-29T01:44:39;9.30;99.90
16479;DHT22;8350;52.316;10.530;2023-12-29T01:47:13;9.20;99.90
16479;DHT22;8350;52.316;10.530;2023-12-29T01:49:44;9.20;99.90
16479;DHT22;8350;52.316;10.530;2023-12-29T01:52:12;9.20;99.90
16479;DHT22;8350;52.316;10.530;2023-12-29T01:54:40;9.10;99.90
16479;DHT22;8350;52.316;10.530;2023-12-29T01:57:08;9.10;99.90
16479;DHT22;8350;52.316;10.530;2023-12-29T01:59:36;9.10;99.90
16479;DHT22;8350;52.316;10.530;2023-12-29T02:02:04;9.10;99.90
16479;DHT22;8350;52.316;10.530;2023-12-29T02:04:31;9.10;99.90
16479;DHT22;8350;52.316;10.530;2023-12-29T02:06:59;9.10;99.90
16479;DHT22;8350;52.316;10.530;2023-12-29T02:09:26;9.10;99.90
16479;DHT22;8350;52.316;10.530;2023-12-29T02:12:06;9.10;99.90
16479;DHT22;8350;52.316;10.530;2023-12-29T02:14:38;9.10;99.90
16479;DHT22;8350;52.316;10.530;2023-12-29T02:17:10;9.10;99.90
16479;DHT22;8350;52.316;10.530;2023-12-29T02:19:43;9.10;99.90
16479;DHT22;8350;52.316;10.530;2023-12-29T02:22:13;9.10;99.90
16479;DHT22;8350;52.316;10.530;2023-12-29T02:24:55;9.00;99.90
16479;DHT22;8350;52.316;10.530;2023-12-29T02:27:29;8.90;99.90
16479;DHT22;8350;52.316;10.530;2023-12-29T02:30:06;8.80;99.90
16479;DHT22;8350;52.316;10.530;2023-12-29T02:32:37;8.80;99.90
16479;DHT22;8350;52.316;10.530;2023-12-29T02:35:05;8.70;99.90
16479;DHT22;8350;52.316;10.530;2023-12-29T02:37:35;8.70;99.90
16479;DHT22;8350;52.316;10.530;2023-12-29T02:40:05;8.70;99.90
16479;DHT22;8350;52.316;10.530;2023-12-29T02:42:32;8.70;99.90
16479;DHT22;8350;52.316;10.530;2023-12-29T02:44:59;8.70;99.90
16479;DHT22;8350;52.316;10.530;2023-12-29T02:47:26;8.70;99.90
16479;DHT22;8350;52.316;10.530;2023-12-29T02:49:54;8.80;99.90
16479;DHT22;8350;52.316;10.530;2023-12-29T02:52:21;8.90;99.90
16479;DHT22;8350;52.316;10.530;2023-12-29T02:54:48;8.90;99.90
16479;DHT22;8350;52.316;10.530;2023-12-29T02:57:16;8.90;99.90
16479;DHT22;8350;52.316;10.530;2023-12-29T02:59:43;8.90;99.90
16479;DHT22;8350;52.316;10.530;2023-12-29T03:02:10;8.90;99.90
16479;DHT22;8350;52.316;10.530;2023-12-29T03:04:38;8.90;99.90
16479;DHT22;8350;52.316;10.530;2023-12-29T03:07:07;8.90;99.90
16479;DHT22;8350;52.316;10.530;2023-12-29T03:09:36;8.90;99.90
16479;DHT22;8350;52.316;10.530;2023-12-29T03:12:26;8.90;99.90
16479;DHT22;8350;52.316;10.530;2023-12-29T03:14:53;9.00;99.90
16479;DHT22;8350;52.316;10.530;2023-12-29T03:17:21;9.00;99.90
16479;DHT22;8350;52.316;10.530;2023-12-29T03:19:52;8.90;99.90
16479;DHT22;8350;52.316;10.530;2023-12-29T03:22:19;8.90;99.90
16479;DHT22;8350;52.316;10.530;2023-12-29T03:24:46;8.90;99.90
16479;DHT22;8350;52.316;10.530;2023-12-29T03:27:13;9.00;99.90
16479;DHT22;8350;52.316;10.530;2023-12-29T03:29:41;9.00;99.90
16479;DHT22;8350;52.316;10.530;2023-12-29T03:32:08;9.00;99.90
16479;DHT22;8350;52.316;10.530;2023-12-29T03:34:35;9.00;99.90
16479;DHT22;8350;52.316;10.530;2023-12-29T03:37:01;9.00;99.90
16479;DHT22;8350;52.316;10.530;2023-12-29T03:39:28;9.10;99.90
16479;DHT22;8350;52.316;10.530;2023-12-29T03:41:57;9.10;99.90
16479;DHT22;8350;52.316;10.530;2023-12-29T03:44:24;9.10;99.90
16479;DHT22;8350;52.316;10.530;2023-12-29T03:46:55;9.10;99.90
16479;DHT22;8350;52.316;10.530;2023-12-29T03:49:21;9.10;99.90
16479;DHT22;8350;52.316;10.530;2023-12-29T03:51:51;9.10;99.90
16479;DHT22;8350;52.316;10.530;2023-12-29T03:54:18;9.10;99.90
16479;DHT22;8350;52.316;10.530;2023-12-29T03:56:47;9.10;99.90
16479;DHT22;8350;52.316;10.530;2023-12-29T03:59:14;9.20;99.90
16479;DHT22;8350;52.316;10.530;2023-12-29T04:01:40;9.10;99.90
16479;DHT22;8350;52.316;10.530;2023-12-29T04:04:08;9.10;99.90
16479;DHT22;8350;52.316;10.530;2023-12-29T04:06:35;9.10;99.90
16479;DHT22;8350;52.316;10.530;2023-12-29T04:09:02;9.10;99.90
16479;DHT22;8350;52.316;10.530;2023-12-29T04:11:31;9.20;99.90
16479;DHT22;8350;52.316;10.530;2023-12-29T04:14:07;9.20;99.90
16479;DHT22;8350;52.316;10.530;2023-12-29T04:16:38;9.20;99.90
16479;DHT22;8350;52.316;10.530;2023-12-29T04:19:06;9.20;99.90
16479;DHT22;8350;52.316;10.530;2023-12-29T04:21:36;9.20;99.90
16479;DHT22;8350;52.316;10.530;2023-12-29T04:24:03;9.30;99.90
16479;DHT22;8350;52.316;10.530;2023-12-29T04:26:34;9.30;99.90
16479;DHT22;8350;52.316;10.530;2023-12-29T04:29:02;9.30;99.90
16479;DHT22;8350;52.316;10.530;2023-12-29T04:31:29;9.30;99.90
16479;DHT22;8350;52.316;10.530;2023-12-29T04:33:56;9.20;99.90
16479;DHT22;8350;52.316;10.530;2023-12-29T04:36:24;9.00;99.90
16479;DHT22;8350;52.316;10.530;2023-12-29T04:38:53;8.90;99.90
16479;DHT22;8350;52.316;10.530;2023-12-29T04:41:22;8.80;99.90
16479;DHT22;8350;52.316;10.530;2023-12-29T04:43:49;8.80;99.90
16479;DHT22;8350;52.316;10.530;2023-12-29T04:46:16;8.80;99.90
16479;DHT22;8350;52.316;10.530;2023-12-29T04:48:43;8.80;99.90
16479;DHT22;8350;52.316;10.530;2023-12-29T04:51:09;8.70;99.90
16479;DHT22;8350;52.316;10.530;2023-12-29T04:53:36;8.70;99.90
16479;DHT22;8350;52.316;10.530;2023-12-29T04:56:05;8.70;99.90
16479;DHT22;8350;52.316;10.530;2023-12-29T04:58:32;8.60;99.90
16479;DHT22;8350;52.316;10.530;2023-12-29T05:01:01;8.60;99.90
16479;DHT22;8350;52.316;10.530;2023-12-29T05:03:28;8.60;99.90
16479;DHT22;8350;52.316;10.530;2023-12-29T05:05:55;8.60;99.90
16479;DHT22;8350;52.316;10.530;2023-12-29T05:08:26;8.60;99.90
16479;DHT22;8350;52.316;10.530;2023-12-29T05:10:52;8.60;99.90
16479;DHT22;8350;52.316;10.530;2023-12-29T05:13:24;8.60;99.90
16479;DHT22;8350;52.316;10.530;2023-12-29T05:15:50;8.60;99.90
16479;DHT22;8350;52.316;10.530;2023-12-29T05:18:17;8.60;99.90
16479;DHT22;8350;52.316;10.530;2023-12-29T05:20:44;8.60;99.90
16479;DHT22;8350;52.316;10.530;2023-12-29T05:23:11;8.60;99.90
16479;DHT22;8350;52.316;10.530;2023-12-29T05:25:39;8.70;99.90
16479;DHT22;8350;52.316;10.530;2023-12-29T05:28:12;8.70;99.90
16479;DHT22;8350;52.316;10.530;2023-12-29T05:30:40;8.70;99.90
16479;DHT22;8350;52.316;10.530;2023-12-29T05:33:07;8.70;99.90
16479;DHT22;8350;52.316;10.530;2023-12-29T05:35:37;8.70;99.90
16479;DHT22;8350;52.316;10.530;2023-12-29T05:38:05;8.70;99.90
16479;DHT22;8350;52.316;10.530;2023-12-29T05:40:32;8.70;99.90
16479;DHT22;8350;52.316;10.530;2023-12-29T05:43:03;8.70;99.90
16479;DHT22;8350;52.316;10.530;2023-12-29T05:45:53;8.70;99.90
16479;DHT22;8350;52.316;10.530;2023-12-29T05:48:33;8.70;99.90
16479;DHT22;8350;52.316;10.530;2023-12-29T05:54:52;8.50;99.90
16479;DHT22;8350;52.316;10.530;2023-12-29T05:57:19;8.60;99.90
16479;DHT22;8350;52.316;10.530;2023-12-29T05:59:50;8.50;99.90
16479;DHT22;8350;52.316;10.530;2023-12-29T06:02:24;8.50;99.90
16479;DHT22;8350;52.316;10.530;2023-12-29T06:05:02;8.50;99.90
16479;DHT22;8350;52.316;10.530;2023-12-29T06:07:52;8.50;99.90
16479;DHT22;8350;52.316;10.530;2023-12-29T06:10:20;8.40;99.90
16479;DHT22;8350;52.316;10.530;2023-12-29T06:16:22;8.50;99.90
16479;DHT22;8350;52.316;10.530;2023-12-29T06:19:14;8.50;99.90
16479;DHT22;8350;52.316;10.530;2023-12-29T06:21:45;8.50;99.90
16479;DHT22;8350;52.316;10.530;2023-12-29T06:24:13;8.50;99.90
16479;DHT22;8350;52.316;10.530;2023-12-29T06:26:40;8.50;99.90
16479;DHT22;8350;52.316;10.530;2023-12-29T06:29:09;8.40;99.90
16479;DHT22;8350;52.316;10.530;2023-12-29T06:31:40;8.50;99.90
16479;DHT22;8350;52.316;10.530;2023-12-29T06:34:08;8.50;99.90
16479;DHT22;8350;52.316;10.530;2023-12-29T06:36:39;8.50;99.90
16479;DHT22;8350;52.316;10.530;2023-12-29T06:39:06;8.50;99.90
16479;DHT22;8350;52.316;10.530;2023-12-29T06:41:33;8.50;99.90
16479;DHT22;8350;52.316;10.530;2023-12-29T06:44:00;8.50;99.90
16479;DHT22;8350;52.316;10.530;2023-12-29T06:46:27;8.50;99.90
16479;DHT22;8350;52.316;10.530;2023-12-29T06:48:54;8.50;99.90
16479;DHT22;8350;52.316;10.530;2023-12-29T06:51:20;8.60;99.90
16479;DHT22;8350;52.316;10.530;2023-12-29T06:53:50;8.50;99.90
16479;DHT22;8350;52.316;10.530;2023-12-29T06:56:17;8.50;99.90
16479;DHT22;8350;52.316;10.530;2023-12-29T06:58:44;8.60;99.90
16479;DHT22;8350;52.316;10.530;2023-12-29T07:01:12;8.60;99.90
16479;DHT22;8350;52.316;10.530;2023-12-29T07:03:39;8.60;99.90
16479;DHT22;8350;52.316;10.530;2023-12-29T07:06:06;8.70;99.90
16479;DHT22;8350;52.316;10.530;2023-12-29T07:08:34;8.70;99.90
16479;DHT22;8350;52.316;10.530;2023-12-29T07:11:09;8.60;99.90
16479;DHT22;8350;52.316;10.530;2023-12-29T07:13:36;8.60;99.90
16479;DHT22;8350;52.316;10.530;2023-12-29T07:16:03;8.70;99.90
16479;DHT22;8350;52.316;10.530;2023-12-29T07:18:33;8.70;99.90
16479;DHT22;8350;52.316;10.530;2023-12-29T07:20:59;8.70;99.90
16479;DHT22;8350;52.316;10.530;2023-12-29T07:23:27;8.70;99.90
16479;DHT22;8350;52.316;10.530;2023-12-29T07:25:53;8.70;99.90
16479;DHT22;8350;52.316;10.530;2023-12-29T07:28:22;8.80;99.90
16479;DHT22;8350;52.316;10.530;2023-12-29T07:30:49;8.80;99.90
16479;DHT22;8350;52.316;10.530;2023-12-29T07:33:16;8.80;99.90
16479;DHT22;8350;52.316;10.530;2023-12-29T07:35:43;8.90;99.90
16479;DHT22;8350;52.316;10.530;2023-12-29T07:38:10;8.90;99.90
16479;DHT22;8350;52.316;10.530;2023-12-29T07:40:37;8.90;99.90
16479;DHT22;8350;52.316;10.530;2023-12-29T07:43:04;9.00;99.90
16479;DHT22;8350;52.316;10.530;2023-12-29T07:45:32;9.00;99.90
16479;DHT22;8350;52.316;10.530;2023-12-29T07:48:00;9.00;99.90
16479;DHT22;8350;52.316;10.530;2023-12-29T07:50:27;9.00;99.90
16479;DHT22;8350;52.316;10.530;2023-12-29T07:52:57;9.10;99.90
16479;DHT22;8350;52.316;10.530;2023-12-29T07:55:26;9.20;99.90
16479;DHT22;8350;52.316;10.530;2023-12-29T07:57:52;9.20;99.90
16479;DHT22;8350;52.316;10.530;2023-12-29T08:00:20;9.30;99.90
16479;DHT22;8350;52.316;10.530;2023-12-29T08:02:49;9.40;99.90
16479;DHT22;8350;52.316;10.530;2023-12-29T08:05:17;9.50;99.90
16479;DHT22;8350;52.316;10.530;2023-12-29T08:07:44;9.50;99.90
16479;DHT22;8350;52.316;10.530;2023-12-29T08:10:11;9.70;99.90
16479;DHT22;8350;52.316;10.530;2023-12-29T08:12:40;9.80;99.90
16479;DHT22;8350;52.316;10.530;2023-12-29T08:15:07;9.80;99.90
16479;DHT22;8350;52.316;10.530;2023-12-29T08:17:34;10.00;99.90
16479;DHT22;8350;52.316;10.530;2023-12-29T08:20:03;10.00;99.90
16479;DHT22;8350;52.316;10.530;2023-12-29T08:22:30;10.10;99.90
16479;DHT22;8350;52.316;10.530;2023-12-29T08:24:58;10.10;99.90
16479;DHT22;8350;52.316;10.530;2023-12-29T08:27:25;10.10;99.90
16479;DHT22;8350;52.316;10.530;2023-12-29T08:29:52;10.20;99.90
16479;DHT22;8350;52.316;10.530;2023-12-29T08:32:19;10.20;99.90
16479;DHT22;8350;52.316;10.530;2023-12-29T08:34:48;10.20;99.90
16479;DHT22;8350;52.316;10.530;2023-12-29T08:37:16;10.20;99.90
16479;DHT22;8350;52.316;10.530;2023-12-29T08:39:45;10.30;99.90
16479;DHT22;8350;52.316;10.530;2023-12-29T08:42:13;10.40;99.90
16479;DHT22;8350;52.316;10.530;2023-12-29T08:44:40;10.40;99.90
16479;DHT22;8350;52.316;10.530;2023-12-29T08:47:07;10.40;99.90
16479;DHT22;8350;52.316;10.530;2023-12-29T08:49:36;10.40;99.90
16479;DHT22;8350;52.316;10.530;2023-12-29T08:52:03;10.40;99.90
16479;DHT22;8350;52.316;10.530;2023-12-29T08:54:35;10.40;99.90
16479;DHT22;8350;52.316;10.530;2023-12-29T08:57:03;10.50;99.90
16479;DHT22;8350;52.316;10.530;2023-12-29T08:59:32;10.50;99.90
16479;DHT22;8350;52.316;10.530;2023-12-29T09:02:05;10.50;99.90
16479;DHT22;8350;52.316;10.530;2023-12-29T09:04:32;10.50;99.90
16479;DHT22;8350;52.316;10.530;2023-12-29T09:07:01;10.50;99.90
16479;DHT22;8350;52.316;10.530;2023-12-29T09:09:33;10.50;99.90
16479;DHT22;8350;52.316;10.530;2023-12-29T09:12:00;10.50;99.90
16479;DHT22;8350;52.316;10.530;2023-12-29T09:14:27;10.50;99.90
16479;DHT22;8350;52.316;10.530;2023-12-29T09:17:04;10.60;99.90
16479;DHT22;8350;52.316;10.530;2023-12-29T09:19:31;10.60;99.90
16479;DHT22;8350;52.316;10.530;2023-12-29T09:21:58;10.60;99.90
16479;DHT22;8350;52.316;10.530;2023-12-29T09:24:25;10.60;99.90
16479;DHT22;8350;52.316;10.530;2023-12-29T09:26:53;10.70;99.90
16479;DHT22;8350;52.316;10.530;2023-12-29T09:29:20;10.70;99.90
16479;DHT22;8350;52.316;10.530;2023-12-29T09:31:47;10.70;99.90
16479;DHT22;8350;52.316;10.530;2023-12-29T09:34:16;10.70;99.90
16479;DHT22;8350;52.316;10.530;2023-12-29T09:36:43;10.70;99.90
16479;DHT22;8350;52.316;10.530;2023-12-29T09:39:10;10.70;99.90
16479;DHT22;8350;52.316;10.530;2023-12-29T09:41:42;10.70;99.90
16479;DHT22;8350;52.316;10.530;2023-12-29T09:44:13;10.70;99.90
16479;DHT22;8350;52.316;10.530;2023-12-29T09:46:41;10.80;99.90
16479;DHT22;8350;52.316;10.530;2023-12-29T09:49:09;10.80;99.90
16479;DHT22;8350;52.316;10.530;2023-12-29T09:51:38;10.80;99.90
16479;DHT22;8350;52.316;10.530;2023-12-29T09:54:05;10.80;99.90
16479;DHT22;8350;52.316;10.530;2023-12-29T09:56:32;10.80;99.90
16479;DHT22;8350;52.316;10.530;2023-12-29T09:59:02;10.70;99.90
16479;DHT22;8350;52.316;10.530;2023-12-29T10:01:34;10.70;99.90
16479;DHT22;8350;52.316;10.530;2023-12-29T10:04:01;10.70;99.90
16479;DHT22;8350;52.316;10.530;2023-12-29T10:06:33;10.50;99.90
16479;DHT22;8350;52.316;10.530;2023-12-29T10:09:02;10.40;99.90
16479;DHT22;8350;52.316;10.530;2023-12-29T10:11:36;10.30;99.90
16479;DHT22;8350;52.316;10.530;2023-12-29T10:14:24;10.10;99.90
16479;DHT22;8350;52.316;10.530;2023-12-29T10:17:02;10.00;99.90
16479;DHT22;8350;52.316;10.530;2023-12-29T10:19:39;9.90;99.90
16479;DHT22;8350;52.316;10.530;2023-12-29T10:22:15;9.70;99.90
16479;DHT22;8350;52.316;10.530;2023-12-29T10:24:47;9.60;99.90
16479;DHT22;8350;52.316;10.530;2023-12-29T10:27:14;9.50;99.90
16479;DHT22;8350;52.316;10.530;2023-12-29T10:29:41;9.30;99.90
16479;DHT22;8350;52.316;10.530;2023-12-29T10:32:10;9.10;99.90
16479;DHT22;8350;52.316;10.530;2023-12-29T10:34:37;9.00;99.90
16479;DHT22;8350;52.316;10.530;2023-12-29T10:37:04;8.90;99.90
16479;DHT22;8350;52.316;10.530;2023-12-29T10:39:34;8.80;99.90
16479;DHT22;8350;52.316;10.530;2023-12-29T10:42:05;8.80;99.90
16479;DHT22;8350;52.316;10.530;2023-12-29T10:44:34;8.80;99.90
16479;DHT22;8350;52.316;10.530;2023-12-29T10:47:07;8.80;99.90
16479;DHT22;8350;52.316;10.530;2023-12-29T10:49:36;8.70;99.90
16479;DHT22;8350;52.316;10.530;2023-12-29T10:52:11;8.80;99.90
16479;DHT22;8350;52.316;10.530;2023-12-29T10:54:39;8.70;99.90
16479;DHT22;8350;52.316;10.530;2023-12-29T10:57:07;8.70;99.90
16479;DHT22;8350;52.316;10.530;2023-12-29T10:59:35;8.70;99.90
16479;DHT22;8350;52.316;10.530;2023-12-29T11:02:02;8.70;99.90
16479;DHT22;8350;52.316;10.530;2023-12-29T11:04:29;8.70;99.90
16479;DHT22;8350;52.316;10.530;2023-12-29T11:06:58;8.70;99.90
16479;DHT22;8350;52.316;10.530;2023-12-29T11:09:29;8.60;99.90
16479;DHT22;8350;52.316;10.530;2023-12-29T11:12:10;8.60;99.90
16479;DHT22;8350;52.316;10.530;2023-12-29T11:14:39;8.60;99.90
16479;DHT22;8350;52.316;10.530;2023-12-29T11:19:40;8.60;99.90
16479;DHT22;8350;52.316;10.530;2023-12-29T11:22:09;8.60;99.90
16479;DHT22;8350;52.316;10.530;2023-12-29T11:24:39;8.60;99.90
16479;DHT22;8350;52.316;10.530;2023-12-29T11:27:06;8.70;99.90
16479;DHT22;8350;52.316;10.530;2023-12-29T11:29:34;8.70;99.90
16479;DHT22;8350;52.316;10.530;2023-12-29T11:32:05;8.80;99.90
16479;DHT22;8350;52.316;10.530;2023-12-29T11:34:37;8.70;99.90
16479;DHT22;8350;52.316;10.530;2023-12-29T11:37:15;8.80;99.90
16479;DHT22;8350;52.316;10.530;2023-12-29T11:39:50;8.80;99.90
16479;DHT22;8350;52.316;10.530;2023-12-29T11:42:22;8.80;99.90
16479;DHT22;8350;52.316;10.530;2023-12-29T11:44:52;8.90;99.90
16479;DHT22;8350;52.316;10.530;2023-12-29T11:47:42;8.90;99.90
16479;DHT22;8350;52.316;10.530;2023-12-29T11:50:10;9.00;99.90
16479;DHT22;8350;52.316;10.530;2023-12-29T11:52:39;9.00;99.90
16479;DHT22;8350;52.316;10.530;2023-12-29T11:55:09;9.00;99.90
16479;DHT22;8350;52.316;10.530;2023-12-29T11:57:36;9.10;99.90
16479;DHT22;8350;52.316;10.530;2023-12-29T12:00:09;9.10;99.90
16479;DHT22;8350;52.316;10.530;2023-12-29T12:02:37;9.10;99.90
16479;DHT22;8350;52.316;10.530;2023-12-29T12:05:05;9.20;99.90
16479;DHT22;8350;52.316;10.530;2023-12-29T12:08:01;9.20;99.90
16479;DHT22;8350;52.316;10.530;2023-12-29T12:10:34;9.30;99.90
16479;DHT22;8350;52.316;10.530;2023-12-29T12:13:04;9.30;99.90
16479;DHT22;8350;52.316;10.530;2023-12-29T12:15:32;9.40;99.90
16479;DHT22;8350;52.316;10.530;2023-12-29T12:18:00;9.40;99.90
16479;DHT22;8350;52.316;10.530;2023-12-29T12:20:29;9.50;99.90
16479;DHT22;8350;52.316;10.530;2023-12-29T12:23:04;9.50;99.90
16479;DHT22;8350;52.316;10.530;2023-12-29T12:25:39;9.60;99.90
16479;DHT22;8350;52.316;10.530;2023-12-29T12:28:14;9.70;99.90
16479;DHT22;8350;52.316;10.530;2023-12-29T12:30:42;9.70;99.90
16479;DHT22;8350;52.316;10.530;2023-12-29T12:33:09;9.80;99.90
16479;DHT22;8350;52.316;10.530;2023-12-29T12:35:38;9.80;99.90
16479;DHT22;8350;52.316;10.530;2023-12-29T12:38:16;9.90;99.90
16479;DHT22;8350;52.316;10.530;2023-12-29T12:40:47;9.90;99.90
16479;DHT22;8350;52.316;10.530;2023-12-29T12:43:26;10.00;99.90
16479;DHT22;8350;52.316;10.530;2023-12-29T12:46:00;10.00;99.90
16479;DHT22;8350;52.316;10.530;2023-12-29T12:48:36;10.00;99.90
16479;DHT22;8350;52.316;10.530;2023-12-29T12:51:06;10.00;99.90
16479;DHT22;8350;52.316;10.530;2023-12-29T12:53:39;10.10;99.90
16479;DHT22;8350;52.316;10.530;2023-12-29T12:56:13;10.10;99.90
16479;DHT22;8350;52.316;10.530;2023-12-29T12:58:45;10.10;99.90
16479;DHT22;8350;52.316;10.530;2023-12-29T13:01:12;10.10;99.90
16479;DHT22;8350;52.316;10.530;2023-12-29T13:03:45;10.00;99.90
16479;DHT22;8350;52.316;10.530;2023-12-29T13:06:27;10.00;99.90
16479;DHT22;8350;52.316;10.530;2023-12-29T13:08:58;10.00;99.90
16479;DHT22;8350;52.316;10.530;2023-12-29T13:11:30;10.00;99.90
16479;DHT22;8350;52.316;10.530;2023-12-29T13:13:57;10.00;99.90
16479;DHT22;8350;52.316;10.530;2023-12-29T13:16:30;9.90;99.90
16479;DHT22;8350;52.316;10.530;2023-12-29T13:18:57;9.90;99.90
16479;DHT22;8350;52.316;10.530;2023-12-29T13:21:24;10.00;99.90
16479;DHT22;8350;52.316;10.530;2023-12-29T13:23:52;10.00;99.90
16479;DHT22;8350;52.316;10.530;2023-12-29T13:26:22;10.10;99.90
16479;DHT22;8350;52.316;10.530;2023-12-29T13:28:56;10.10;99.90
16479;DHT22;8350;52.316;10.530;2023-12-29T13:31:27;10.10;99.90
16479;DHT22;8350;52.316;10.530;2023-12-29T13:33:59;10.10;99.90
16479;DHT22;8350;52.316;10.530;2023-12-29T13:36:38;10.10;99.90
16479;DHT22;8350;52.316;10.530;2023-12-29T13:39:14;10.00;99.90
16479;DHT22;8350;52.316;10.530;2023-12-29T13:41:44;10.00;99.90
16479;DHT22;8350;52.316;10.530;2023-12-29T13:44:12;9.90;99.90
16479;DHT22;8350;52.316;10.530;2023-12-29T13:46:40;9.90;99.90
16479;DHT22;8350;52.316;10.530;2023-12-29T13:49:08;9.90;99.90
16479;DHT22;8350;52.316;10.530;2023-12-29T13:51:38;9.90;99.90
16479;DHT22;8350;52.316;10.530;2023-12-29T13:54:05;9.90;99.90
16479;DHT22;8350;52.316;10.530;2023-12-29T13:56:33;10.00;99.90
16479;DHT22;8350;52.316;10.530;2023-12-29T13:59:01;9.90;99.90
16479;DHT22;8350;52.316;10.530;2023-12-29T14:01:35;9.90;99.90
16479;DHT22;8350;52.316;10.530;2023-12-29T14:04:03;10.00;99.90
16479;DHT22;8350;52.316;10.530;2023-12-29T14:06:38;10.00;99.90
16479;DHT22;8350;52.316;10.530;2023-12-29T14:09:06;10.00;99.90
16479;DHT22;8350;52.316;10.530;2023-12-29T14:11:44;10.00;99.90
16479;DHT22;8350;52.316;10.530;2023-12-29T14:14:12;10.10;99.90
16479;DHT22;8350;52.316;10.530;2023-12-29T14:16:39;10.10;99.90
16479;DHT22;8350;52.316;10.530;2023-12-29T14:19:08;10.10;99.90
16479;DHT22;8350;52.316;10.530;2023-12-29T14:21:43;10.10;99.90
16479;DHT22;8350;52.316;10.530;2023-12-29T14:24:12;10.20;99.90
16479;DHT22;8350;52.316;10.530;2023-12-29T14:26:41;10.20;99.90
16479;DHT22;8350;52.316;10.530;2023-12-29T14:29:12;10.20;99.90
16479;DHT22;8350;52.316;10.530;2023-12-29T14:31:42;10.30;99.90
16479;DHT22;8350;52.316;10.530;2023-12-29T14:34:12;10.20;99.90
16479;DHT22;8350;52.316;10.530;2023-12-29T14:36:58;10.30;99.90
16479;DHT22;8350;52.316;10.530;2023-12-29T14:39:32;10.40;99.90
16479;DHT22;8350;52.316;10.530;2023-12-29T14:41:59;10.40;99.90
16479;DHT22;8350;52.316;10.530;2023-12-29T14:44:28;10.40;99.90
16479;DHT22;8350;52.316;10.530;2023-12-29T14:47:05;10.30;99.90
16479;DHT22;8350;52.316;10.530;2023-12-29T14:49:48;10.40;99.90
16479;DHT22;8350;52.316;10.530;2023-12-29T14:52:30;10.40;99.90
16479;DHT22;8350;52.316;10.530;2023-12-29T14:55:09;10.40;99.90
16479;DHT22;8350;52.316;10.530;2023-12-29T15:03:20;10.30;99.90
16479;DHT22;8350;52.316;10.530;2023-12-29T15:06:09;10.20;99.90
16479;DHT22;8350;52.316;10.530;2023-12-29T15:08:37;10.20;99.90
16479;DHT22;8350;52.316;10.530;2023-12-29T15:11:07;10.20;99.90
16479;DHT22;8350;52.316;10.530;2023-12-29T15:13:39;10.10;99.90
16479;DHT22;8350;52.316;10.530;2023-12-29T15:16:06;10.10;99.90
16479;DHT22;8350;52.316;10.530;2023-12-29T15:18:35;10.10;99.90
16479;DHT22;8350;52.316;10.530;2023-12-29T15:21:02;10.10;99.90
16479;DHT22;8350;52.316;10.530;2023-12-29T15:23:29;10.10;99.90
16479;DHT22;8350;52.316;10.530;2023-12-29T15:25:58;10.10;99.90
16479;DHT22;8350;52.316;10.530;2023-12-29T15:28:27;10.10;99.90
16479;DHT22;8350;52.316;10.530;2023-12-29T15:30:58;10.10;99.90
16479;DHT22;8350;52.316;10.530;2023-12-29T15:33:25;10.20;99.90
16479;DHT22;8350;52.316;10.530;2023-12-29T15:35:53;10.20;99.90
16479;DHT22;8350;52.316;10.530;2023-12-29T15:38:28;10.20;99.90
16479;DHT22;8350;52.316;10.530;2023-12-29T15:40:56;10.20;99.90
16479;DHT22;8350;52.316;10.530;2023-12-29T15:43:24;10.20;99.90
16479;DHT22;8350;52.316;10.530;2023-12-29T15:45:54;10.20;99.90
16479;DHT22;8350;52.316;10.530;2023-12-29T15:48:21;10.20;99.90
16479;DHT22;8350;52.316;10.530;2023-12-29T15:50:48;10.20;99.90
16479;DHT22;8350;52.316;10.530;2023-12-29T15:53:16;10.10;99.90
16479;DHT22;8350;52.316;10.530;2023-12-29T15:55:43;10.10;99.90
16479;DHT22;8350;52.316;10.530;2023-12-29T15:58:10;10.10;99.90
16479;DHT22;8350;52.316;10.530;2023-12-29T16:00:37;10.10;99.90
16479;DHT22;8350;52.316;10.530;2023-12-29T16:03:04;10.10;99.90
16479;DHT22;8350;52.316;10.530;2023-12-29T16:05:33;10.10;99.90
16479;DHT22;8350;52.316;10.530;2023-12-29T16:08:07;10.10;99.90
16479;DHT22;8350;52.316;10.530;2023-12-29T16:10:36;10.10;99.90
16479;DHT22;8350;52.316;10.530;2023-12-29T16:13:04;10.10;99.90